METAR Data
IDs: Format: Raw Decoded Include TAF

Data at: 2116 UTC 18 Sep 2018

KGTU 182056Z 14007KT 100V190 10SM CLR 33/19 A2995 RMK AO2 SLP135 T03330194 56022
KGTU 181956Z 15009KT 10SM FEW052 33/18 A2997 RMK AO2 SLP140 T03330183
KGTU 181856Z VRB04KT 10SM CLR 32/21 A3000 RMK AO2 SLP151 T03170206
KGTU 181756Z 16008KT 10SM SCT040 32/21 A3002 RMK AO2 SLP158 T03220211 10322 20228 58010
KGTU 181656Z 19008KT 10SM CLR 31/22 A3004 RMK AO2 SLP167 T03060217
KGTU 181556Z 22004KT 10SM CLR 29/22 A3006 RMK AO2 SLP172 T02940222
KGTU 181456Z 22004KT 10SM CLR 27/23 A3005 RMK AO2 SLP170 T02720228 51008
KGTU 181356Z 24006KT 10SM CLR 26/23 A3005 RMK AO2 SLP171 T02560233
KGTU 181256Z 00000KT 10SM CLR 23/22 A3005 RMK AO2 SLP169 T02330222
KGTU 181156Z 22004KT 10SM CLR 23/22 A3003 RMK AO2 SLP161 T02280217 10250 20222 53007
KGTU 181056Z AUTO 00000KT 10SM CLR 23/22 A3002 RMK AO2 SLP160 T02330217
KGTU 180956Z AUTO 23003KT 10SM CLR 23/21 A3001 RMK AO2 SLP155 T02280211
KGTU 180856Z AUTO 00000KT 10SM CLR 24/21 A3001 RMK AO2 SLP154 T02390211 56004
KGTU 180756Z AUTO 00000KT 10SM CLR 24/21 A3001 RMK AO2 SLP154 T02440211
KGTU 180656Z AUTO 00000KT 10SM CLR 24/21 A3001 RMK AO2 SLP157 T02390211
KGTU 180556Z AUTO 00000KT 10SM CLR 25/21 A3002 RMK AO2 SLP159 T02500211 10317 20244 403330206 51006
KGTU 180456Z AUTO 23004KT 10SM CLR 25/21 A3001 RMK AO2 SLP157 T02500211
KGTU 180356Z AUTO 23003KT 10SM CLR 26/22 A3002 RMK AO2 SLP159 T02560217 TSNO
KGTU 180256Z 24003KT 10SM CLR 27/22 A3000 RMK AO2 SLP154 T02670222 53015
KGTU 180156Z 00000KT 10SM CLR 28/22 A2998 RMK AO2 SLP144 T02780222
KGTU 180056Z 00000KT 10SM CLR 29/22 A2997 RMK AO2 SLP140 T02940217
KGTU 172356Z 13005KT 10SM BKN055 32/21 A2996 RMK AO2 SLP139 60000 T03170211 10333 20300 55004
KGTU 172256Z 23003KT 10SM FEW060 32/19 A2995 RMK AO2 SLP137 T03220194
KGTU 172156Z VRB04G15KT 10SM BKN060 33/20 A2996 RMK AO2 SLP138 T03280200
KGTU 172056Z 27005KT 10SM FEW055 33/20 A2997 RMK AO2 SLP142 60000 T03330200 56021
KGTU 171956Z 20006KT 10SM SCT048 SCT110 32/21 A2999 RMK AO2 SLP148 T03220206
KGTU 171856Z 21006KT 10SM SCT036 SCT110 32/22 A3001 RMK AO2 RAB15E26 SLP156 P0000 T03170222
KGTU 171756Z 26008KT 10SM CLR 30/22 A3003 RMK AO2 SLP165 T03000222 10306 20206 58003
KGTU 171556Z 21007KT 10SM CLR 28/21 A3005 RMK AO2 SLP169 T02780211
KGTU 171456Z 24003KT 10SM CLR 27/22 A3004 RMK AO2 SLP166 T02670217 51008
KGTU 171356Z 22004KT 10SM CLR 24/22 A3004 RMK AO2 SLP165 T02390217
KGTU 171256Z 00000KT 10SM CLR 22/21 A3003 RMK AO2 SLP160 T02220206
KGTU 171156Z 00000KT 10SM SCT110 21/20 A3002 RMK AO2 SLP158 T02110200 10228 20206 53013
KGTU 171056Z AUTO 00000KT 10SM CLR 21/21 A3000 RMK AO2 SLP151 T02110206
KGTU 170956Z AUTO 00000KT 10SM CLR 21/21 A2998 RMK AO2 SLP146 T02110206